createdAt,value
2018-11-13T00:01:29.283Z,98662.84
2018-11-13T00:03:57.472Z,98661.92
2018-11-13T00:06:29.873Z,98665.31
2018-11-13T00:08:58.489Z,98662.09
2018-11-13T00:11:26.843Z,98664.30
2018-11-13T00:13:54.963Z,98665.98
2018-11-13T00:16:23.175Z,98666.16
2018-11-13T00:18:51.411Z,98670.34
2018-11-13T00:21:19.609Z,98667.81
2018-11-13T00:23:47.837Z,98670.83
2018-11-13T00:26:16.001Z,98662.72
2018-11-13T00:28:44.196Z,98665.43
2018-11-13T00:31:12.854Z,98661.59
2018-11-13T00:33:41.072Z,98658.34
2018-11-13T00:36:09.311Z,98659.34
2018-11-13T00:38:37.523Z,98668.81
2018-11-13T00:41:06.809Z,98675.34
2018-11-13T00:43:35.403Z,98674.23
2018-11-13T00:46:03.637Z,98669.99
2018-11-13T00:48:31.735Z,98670.30
2018-11-13T00:51:00.080Z,98673.94
2018-11-13T00:53:28.229Z,98673.98
2018-11-13T00:55:56.555Z,98671.62
2018-11-13T00:58:24.755Z,98673.20
2018-11-13T01:00:53.161Z,98661.42
2018-11-13T01:03:21.202Z,98660.00
2018-11-13T01:05:49.412Z,98670.45
2018-11-13T01:08:17.552Z,98666.23
2018-11-13T01:10:45.724Z,98667.98
2018-11-13T01:13:13.876Z,98668.95
2018-11-13T01:15:42.200Z,98666.89
2018-11-13T01:18:10.562Z,98664.88
2018-11-13T01:20:39.892Z,98658.64
2018-11-13T01:23:08.193Z,98653.59
2018-11-13T01:25:36.580Z,98661.92
2018-11-13T01:28:05.248Z,98657.00
2018-11-13T01:30:33.522Z,98655.05
2018-11-13T01:33:01.831Z,98652.09
2018-11-13T01:35:30.132Z,98651.09
2018-11-13T01:37:58.308Z,98646.83
2018-11-13T01:40:26.483Z,98642.72
2018-11-13T01:42:54.662Z,98654.10
2018-11-13T01:45:22.829Z,98645.33
2018-11-13T01:47:51.070Z,98642.97
2018-11-13T01:50:19.603Z,98639.71
2018-11-13T01:52:47.841Z,98644.42
2018-11-13T01:55:16.610Z,98638.06
2018-11-13T01:57:44.833Z,98642.06
2018-11-13T02:00:19.202Z,98647.48
2018-11-13T02:02:48.621Z,98647.63
2018-11-13T02:05:17.790Z,98643.78
2018-11-13T02:07:46.057Z,98647.23
2018-11-13T02:10:14.848Z,98646.94
2018-11-13T02:12:43.328Z,98647.28
2018-11-13T02:15:11.537Z,98643.27
2018-11-13T02:17:39.808Z,98650.24
2018-11-13T02:20:10.310Z,98651.30
2018-11-13T02:22:38.544Z,98646.38
2018-11-13T02:25:08.661Z,98634.20
2018-11-13T02:27:36.820Z,98640.56
2018-11-13T02:30:05.715Z,98631.48
2018-11-13T02:32:33.888Z,98639.76
2018-11-13T02:35:02.296Z,98631.44
2018-11-13T02:37:30.439Z,98631.73
2018-11-13T02:39:58.688Z,98625.93
2018-11-13T02:42:26.882Z,98624.52
2018-11-13T02:44:55.066Z,98619.89
2018-11-13T02:47:23.362Z,98627.38
2018-11-13T02:49:51.513Z,98627.93
2018-11-13T02:52:19.794Z,98628.18
2018-11-13T02:54:47.961Z,98630.13
2018-11-13T02:57:16.137Z,98625.77
2018-11-13T02:59:44.305Z,98621.81
2018-11-13T03:02:12.581Z,98624.17
2018-11-13T03:04:40.865Z,98621.02
2018-11-13T03:07:09.037Z,98626.18
2018-11-13T03:09:37.210Z,98620.81
2018-11-13T03:12:05.628Z,98616.45
2018-11-13T03:15:37.546Z,98616.61
2018-11-13T03:18:06.023Z,98616.41
2018-11-13T03:20:35.154Z,98618.27
2018-11-13T03:23:03.497Z,98613.00
2018-11-13T03:25:33.519Z,98611.48
2018-11-13T03:28:02.928Z,98610.39
2018-11-13T03:30:31.141Z,98601.27
2018-11-13T03:32:59.572Z,98601.57
2018-11-13T03:35:27.950Z,98590.14
2018-11-13T03:37:56.229Z,98588.18
2018-11-13T03:40:24.450Z,98587.86
2018-11-13T03:42:52.790Z,98597.53
2018-11-13T03:45:21.154Z,98599.16
2018-11-13T03:47:49.426Z,98599.41
2018-11-13T03:50:20.790Z,98608.03
2018-11-13T03:52:49.359Z,98621.98
2018-11-13T03:55:18.453Z,98631.66
2018-11-13T03:57:47.666Z,98630.81
2018-11-13T04:00:17.405Z,98632.27
2018-11-13T04:02:45.843Z,98618.11
2018-11-13T04:05:15.248Z,98622.44
2018-11-13T04:07:45.081Z,98616.23
2018-11-13T04:10:14.253Z,98605.38
2018-11-13T04:12:42.842Z,98608.36
2018-11-13T04:15:13.281Z,98605.45
2018-11-13T04:17:41.603Z,98614.05
2018-11-13T04:20:11.770Z,98616.02
2018-11-13T04:22:40.241Z,98616.88
2018-11-13T04:25:08.737Z,98608.70
2018-11-13T04:27:37.109Z,98607.61
2018-11-13T04:30:05.581Z,98604.05
2018-11-13T04:32:33.858Z,98614.86
2018-11-13T04:35:02.133Z,98623.47
2018-11-13T04:37:30.389Z,98619.91
2018-11-13T04:39:58.685Z,98628.89
2018-11-13T04:42:26.958Z,98632.84
2018-11-13T04:44:55.394Z,98634.00
2018-11-13T04:47:23.716Z,98638.31
2018-11-13T04:49:53.220Z,98634.70
2018-11-13T04:52:21.496Z,98633.25
2018-11-13T04:54:49.782Z,98633.80
2018-11-13T04:57:18.052Z,98627.38
2018-11-13T04:59:46.428Z,98621.47
2018-11-13T05:02:14.612Z,98621.72
2018-11-13T05:04:42.938Z,98626.78
2018-11-13T05:07:11.156Z,98636.91
2018-11-13T05:09:39.336Z,98632.50
2018-11-13T05:12:07.550Z,98632.80
2018-11-13T05:14:35.700Z,98629.09
2018-11-13T05:17:03.954Z,98637.45
2018-11-13T05:19:32.266Z,98642.19
2018-11-13T05:22:00.514Z,98649.23
2018-11-13T05:24:28.685Z,98647.84
2018-11-13T05:26:56.879Z,98665.64
2018-11-13T05:29:25.046Z,98684.58
2018-11-13T05:31:53.200Z,98688.50
2018-11-13T05:34:21.373Z,98691.89
2018-11-13T05:36:49.545Z,98690.45
2018-11-13T05:39:17.697Z,98697.42
2018-11-13T05:41:45.996Z,98705.81
2018-11-13T05:44:14.082Z,98719.25
2018-11-13T05:46:42.309Z,98724.20
2018-11-13T05:49:10.497Z,98721.37
2018-11-13T05:51:38.661Z,98732.66
2018-11-13T05:54:06.825Z,98740.70
2018-11-13T05:56:35.037Z,98739.89
2018-11-13T05:59:03.201Z,98753.76
2018-11-13T06:01:31.351Z,98755.62
2018-11-13T06:03:59.532Z,98742.14
2018-11-13T06:06:27.685Z,98738.50
2018-11-13T06:08:56.063Z,98749.78
2018-11-13T06:11:24.436Z,98752.70
2018-11-13T06:13:52.745Z,98742.85
2018-11-13T06:16:20.892Z,98751.52
2018-11-13T06:18:49.151Z,98762.64
2018-11-13T06:21:17.422Z,98782.26
2018-11-13T06:23:45.665Z,98791.94
2018-11-13T06:26:13.863Z,98786.31
2018-11-13T06:28:42.083Z,98785.05
2018-11-13T06:31:10.226Z,98797.19
2018-11-13T06:33:38.396Z,98790.63
2018-11-13T06:36:06.676Z,98798.16
2018-11-13T06:38:34.976Z,98803.95
2018-11-13T06:41:03.209Z,98811.22
2018-11-13T06:43:31.461Z,98812.91
2018-11-13T06:45:59.661Z,98804.48
2018-11-13T06:48:27.839Z,98801.16
2018-11-13T06:50:56.040Z,98789.44
2018-11-13T06:53:24.265Z,98772.67
2018-11-13T06:55:56.194Z,98765.42
2018-11-13T06:58:24.353Z,98774.65
2018-11-13T07:00:52.516Z,98781.16
2018-11-13T07:03:20.760Z,98777.61
2018-11-13T07:05:49.016Z,98793.01
2018-11-13T07:08:21.472Z,98803.84
2018-11-13T07:10:49.714Z,98804.03
2018-11-13T07:13:17.814Z,98801.72
2018-11-13T07:15:45.972Z,98814.07
2018-11-13T07:18:14.248Z,98824.34
2018-11-13T07:20:42.401Z,98828.46
2018-11-13T07:23:10.889Z,98820.48
2018-11-13T07:25:39.092Z,98823.14
2018-11-13T07:28:07.315Z,98813.62
2018-11-13T07:30:35.573Z,98808.25
2018-11-13T07:33:03.757Z,98804.39
2018-11-13T07:35:31.980Z,98814.88
2018-11-13T07:38:00.771Z,98819.95
2018-11-13T07:40:29.177Z,98809.63
2018-11-13T07:42:57.402Z,98809.78
2018-11-13T07:45:25.621Z,98808.81
2018-11-13T07:47:54.249Z,98819.14
2018-11-13T07:50:22.352Z,98832.59
2018-11-13T07:52:50.530Z,98846.24
2018-11-13T07:55:18.721Z,98842.34
2018-11-13T07:57:46.900Z,98854.88
2018-11-13T08:00:18.212Z,98838.22
2018-11-13T08:02:47.968Z,98845.70
2018-11-13T08:05:16.244Z,98844.89
2018-11-13T08:07:44.463Z,98859.91
2018-11-13T08:10:13.407Z,98860.81
2018-11-13T08:12:41.625Z,98873.70
2018-11-13T08:15:11.678Z,98871.45
2018-11-13T08:17:39.971Z,98871.98
2018-11-13T08:20:09.954Z,98870.84
2018-11-13T08:22:38.184Z,98881.88
2018-11-13T08:25:07.919Z,98875.20
2018-11-13T08:27:36.170Z,98870.03
2018-11-13T08:30:04.859Z,98868.92
2018-11-13T08:32:33.054Z,98878.86
2018-11-13T08:35:01.385Z,98883.28
2018-11-13T08:37:29.471Z,98884.89
2018-11-13T08:39:57.629Z,98888.86
2018-11-13T08:42:25.801Z,98902.56
2018-11-13T08:44:53.977Z,98907.95
2018-11-13T08:47:22.147Z,98901.66
2018-11-13T08:49:50.321Z,98907.92
2018-11-13T08:52:18.509Z,98915.50
2018-11-13T08:54:46.657Z,98924.29
2018-11-13T08:57:14.929Z,98917.91
2018-11-13T08:59:43.244Z,98919.50
2018-11-13T09:02:11.330Z,98925.03
2018-11-13T09:04:39.472Z,98925.42
2018-11-13T09:07:07.744Z,98924.06
2018-11-13T09:09:35.904Z,98933.42
2018-11-13T09:12:04.240Z,98937.52
2018-11-13T09:14:32.369Z,98942.00
2018-11-13T09:17:00.524Z,98950.34
2018-11-13T09:19:28.870Z,98956.37
2018-11-13T09:21:56.892Z,98973.78
2018-11-13T09:24:25.046Z,98980.19
2018-11-13T09:26:53.224Z,98990.16
2018-11-13T09:29:21.414Z,98987.98
2018-11-13T09:31:49.586Z,98993.33
2018-11-13T09:34:17.747Z,98997.13
2018-11-13T09:36:45.934Z,98995.87
2018-11-13T09:39:14.169Z,99003.22
2018-11-13T09:41:44.798Z,99008.29
2018-11-13T09:44:12.945Z,99005.09
2018-11-13T09:46:41.103Z,99010.45
2018-11-13T09:49:09.397Z,99017.94
2018-11-13T09:51:37.649Z,99015.93
2018-11-13T09:54:05.792Z,99012.16
2018-11-13T09:56:34.107Z,99018.48
2018-11-13T09:59:02.704Z,99017.80
2018-11-13T10:01:31.088Z,99024.66
2018-11-13T10:03:59.397Z,99037.17
2018-11-13T10:06:27.219Z,99039.81
2018-11-13T10:08:55.416Z,99039.92
2018-11-13T10:11:23.628Z,99052.74
2018-11-13T10:13:51.913Z,99063.92
2018-11-13T10:16:20.072Z,99064.81
2018-11-13T10:18:48.238Z,99059.02
2018-11-13T10:21:16.446Z,99057.14
2018-11-13T10:23:44.686Z,99047.14
2018-11-13T10:26:12.882Z,99050.31
2018-11-13T10:28:41.049Z,99052.52
2018-11-13T10:31:09.230Z,99050.95
2018-11-13T10:33:37.386Z,99062.61
2018-11-13T10:36:05.690Z,99053.59
2018-11-13T10:38:40.795Z,99047.91
2018-11-13T10:41:09.133Z,99052.19
2018-11-13T10:43:37.236Z,99056.53
2018-11-13T10:46:05.833Z,99059.55
2018-11-13T10:48:33.992Z,99062.34
2018-11-13T10:51:02.138Z,99060.00
2018-11-13T10:53:30.287Z,99063.33
2018-11-13T10:55:58.439Z,99062.06
2018-11-13T10:58:26.599Z,99056.86
2018-11-13T11:01:04.302Z,99040.50
2018-11-13T11:03:37.829Z,99042.53
2018-11-13T11:06:06.086Z,99039.09
2018-11-13T11:08:34.237Z,99052.37
2018-11-13T11:11:02.385Z,99057.41
2018-11-13T11:13:30.650Z,99066.59
2018-11-13T11:15:58.685Z,99063.70
2018-11-13T11:18:26.849Z,99057.22
2018-11-13T11:20:57.180Z,99036.06
2018-11-13T11:23:25.405Z,99038.03
2018-11-13T11:25:53.507Z,99038.89
2018-11-13T11:28:21.692Z,99050.97
2018-11-13T11:30:49.991Z,99055.25
2018-11-13T11:33:18.130Z,99049.77
2018-11-13T11:35:46.311Z,99041.31
2018-11-13T11:38:14.572Z,99039.28
2018-11-13T11:40:42.810Z,99036.33
2018-11-13T11:43:10.968Z,99042.80
2018-11-13T11:45:39.197Z,99045.39
2018-11-13T11:48:07.369Z,99045.89
2018-11-13T11:50:35.556Z,99054.34
2018-11-13T11:53:03.773Z,99055.09
2018-11-13T11:55:31.935Z,99062.41
2018-11-13T11:58:00.091Z,99060.33
2018-11-13T12:00:33.960Z,99071.14
2018-11-13T12:03:02.405Z,99079.35
2018-11-13T12:05:30.601Z,99070.72
2018-11-13T12:07:58.742Z,99068.31
2018-11-13T12:10:26.977Z,99054.44
2018-11-13T12:12:55.137Z,99050.70
2018-11-13T12:15:23.309Z,99067.33
2018-11-13T12:17:51.535Z,99065.79
2018-11-13T12:20:19.704Z,99059.86
2018-11-13T12:22:47.962Z,99050.11
2018-11-13T12:25:20.161Z,99066.23
2018-11-13T12:27:46.852Z,99070.25
2018-11-13T12:30:19.257Z,99068.81
2018-11-13T12:32:48.272Z,99042.74
2018-11-13T12:35:17.461Z,99037.24
2018-11-13T12:37:45.634Z,99031.80
2018-11-13T12:40:21.502Z,99027.10
2018-11-13T12:42:50.192Z,99025.50
2018-11-13T12:45:18.752Z,99045.89
2018-11-13T12:47:47.044Z,99045.70
2018-11-13T12:50:16.449Z,99056.65
2018-11-13T12:52:45.275Z,99050.87
2018-11-13T12:55:21.934Z,99027.17
2018-11-13T12:57:50.121Z,99026.55
2018-11-13T13:00:21.877Z,99034.23
2018-11-13T13:02:50.086Z,99034.36
2018-11-13T13:05:18.321Z,99046.03
2018-11-13T13:07:46.635Z,99044.75
2018-11-13T13:10:15.759Z,99049.58
2018-11-13T13:12:43.907Z,99053.00
2018-11-13T13:15:14.059Z,99054.39
2018-11-13T13:17:42.525Z,99042.08
2018-11-13T13:20:13.344Z,99044.18
2018-11-13T13:22:41.783Z,99043.75
2018-11-13T13:25:12.387Z,99048.41
2018-11-13T13:27:40.878Z,99056.92
2018-11-13T13:30:16.167Z,99074.48
2018-11-13T13:32:44.912Z,99086.31
2018-11-13T13:36:09.152Z,99084.13
2018-11-13T13:38:38.424Z,99084.64
2018-11-13T13:41:06.958Z,99084.76
2018-11-13T13:43:35.648Z,99116.52
2018-11-13T13:46:03.817Z,99129.94
2018-11-13T13:48:31.985Z,99144.11
2018-11-13T13:51:00.135Z,99149.55
2018-11-13T13:53:28.750Z,99153.87
2018-11-13T13:55:56.885Z,99164.19
2018-11-13T13:58:25.501Z,99170.61
2018-11-13T14:00:54.277Z,99163.11
2018-11-13T14:03:22.294Z,99166.47
2018-11-13T14:05:50.488Z,99167.83
2018-11-13T14:08:19.020Z,99170.63
2018-11-13T14:10:47.218Z,99172.59
2018-11-13T14:13:15.666Z,99186.14
2018-11-13T14:15:43.841Z,99186.62
2018-11-13T14:18:12.427Z,99180.53
2018-11-13T14:20:41.153Z,99167.86
2018-11-13T14:23:09.348Z,99180.18
2018-11-13T14:25:37.584Z,99178.57
2018-11-13T14:28:05.768Z,99179.43
2018-11-13T14:30:35.135Z,99193.44
2018-11-13T14:33:04.784Z,99195.05
2018-11-13T14:35:39.237Z,99196.91
2018-11-13T14:38:07.593Z,99205.92
2018-11-13T14:40:39.188Z,99211.23
2018-11-13T14:43:07.783Z,99206.03
2018-11-13T14:45:36.104Z,99189.97
2018-11-13T14:48:04.298Z,99210.23
2018-11-13T14:50:33.900Z,99225.53
2018-11-13T14:53:02.222Z,99225.28
2018-11-13T14:55:32.372Z,99222.97
2018-11-13T14:58:01.417Z,99221.36
2018-11-13T15:00:30.820Z,99215.02
2018-11-13T15:02:59.649Z,99205.55
2018-11-13T15:05:28.597Z,99225.08
2018-11-13T15:07:59.013Z,99235.74
2018-11-13T15:10:38.113Z,99240.14
2018-11-13T15:13:06.812Z,99218.94
2018-11-13T15:15:34.985Z,99247.18
2018-11-13T15:18:03.140Z,99245.37
2018-11-13T15:20:31.871Z,99251.10
2018-11-13T15:23:00.093Z,99249.39
2018-11-13T15:25:28.252Z,99260.70
2018-11-13T15:27:56.405Z,99258.08
2018-11-13T15:30:27.996Z,99268.43
2018-11-13T15:32:58.620Z,99276.92
2018-11-13T15:35:26.820Z,99275.05
2018-11-13T15:37:54.972Z,99279.98
2018-11-13T15:40:24.651Z,99271.88
2018-11-13T15:42:52.804Z,99268.36
2018-11-13T15:45:21.323Z,99278.37
2018-11-13T15:47:50.302Z,99283.55
2018-11-13T15:50:19.888Z,99288.42
2018-11-13T15:52:48.101Z,99299.84
2018-11-13T15:55:16.762Z,99293.70
2018-11-13T15:57:45.400Z,99303.24
2018-11-13T16:00:20.186Z,99312.87
2018-11-13T16:02:48.406Z,99317.67
2018-11-13T16:05:37.725Z,99316.98
2018-11-13T16:08:07.003Z,99316.39
2018-11-13T16:10:35.281Z,99328.70
2018-11-13T16:13:03.642Z,99330.22
2018-11-13T16:15:32.461Z,99323.98
2018-11-13T16:18:01.849Z,99324.08
2018-11-13T16:20:30.113Z,99332.23
2018-11-13T16:22:58.347Z,99328.39
2018-11-13T16:25:26.940Z,99324.87
2018-11-13T16:27:55.119Z,99342.48
2018-11-13T16:30:24.893Z,99338.86
2018-11-13T16:32:53.289Z,99342.23
2018-11-13T16:35:22.626Z,99345.16
2018-11-13T16:37:51.667Z,99348.56
2018-11-13T16:40:21.998Z,99349.38
2018-11-13T16:42:50.200Z,99352.83
2018-11-13T16:45:19.736Z,99349.72
2018-11-13T16:47:47.928Z,99343.33
2018-11-13T16:50:18.612Z,99338.30
2018-11-13T16:52:46.928Z,99355.47
2018-11-13T16:55:20.422Z,99355.05
2018-11-13T16:57:49.376Z,99359.50
2018-11-13T17:00:17.820Z,99368.19
2018-11-13T17:02:45.958Z,99377.57
2018-11-13T17:05:15.325Z,99371.86
2018-11-13T17:07:43.631Z,99374.91
2018-11-13T17:10:15.780Z,99381.66
2018-11-13T17:12:44.396Z,99386.22
2018-11-13T17:15:15.094Z,99382.94
2018-11-13T17:17:43.867Z,99386.43
2018-11-13T17:20:13.130Z,99390.47
2018-11-13T17:22:41.888Z,99392.52
2018-11-13T17:25:11.357Z,99387.21
2018-11-13T17:27:40.861Z,99393.63
2018-11-13T17:30:12.183Z,99387.79
2018-11-13T17:32:40.661Z,99382.05
2018-11-13T17:35:09.890Z,99396.33
2018-11-13T17:37:38.353Z,99391.27
2018-11-13T17:40:09.165Z,99394.53
2018-11-13T17:42:37.324Z,99393.50
2018-11-13T17:45:08.117Z,99396.81
2018-11-13T17:47:36.345Z,99396.23
2018-11-13T17:50:07.453Z,99393.72
2018-11-13T17:52:35.655Z,99395.14
2018-11-13T17:55:03.888Z,99392.05
2018-11-13T17:57:32.144Z,99393.64
2018-11-13T18:00:00.309Z,99389.97
2018-11-13T18:02:28.464Z,99399.00
2018-11-13T18:04:56.676Z,99394.98
2018-11-13T18:07:24.858Z,99397.45
2018-11-13T18:09:53.060Z,99400.45
2018-11-13T18:12:21.224Z,99402.11
2018-11-13T18:14:49.490Z,99410.52
2018-11-13T18:17:17.628Z,99410.54
2018-11-13T18:19:45.810Z,99407.59
2018-11-13T18:22:14.202Z,99416.54
2018-11-13T18:24:42.632Z,99414.67
2018-11-13T18:27:11.076Z,99417.11
2018-11-13T18:29:39.671Z,99414.97
2018-11-13T18:32:08.103Z,99415.80
2018-11-13T18:34:36.583Z,99426.60
2018-11-13T18:37:04.765Z,99431.08
2018-11-13T18:39:33.073Z,99434.35
2018-11-13T18:42:01.275Z,99433.32
2018-11-13T18:44:29.488Z,99431.98
2018-11-13T18:46:57.607Z,99428.48
2018-11-13T18:49:25.781Z,99429.05
2018-11-13T18:51:54.040Z,99430.14
2018-11-13T18:54:22.200Z,99427.98
2018-11-13T18:56:50.413Z,99430.95
2018-11-13T18:59:18.729Z,99438.55
2018-11-13T19:01:46.842Z,99435.04
2018-11-13T19:04:15.097Z,99439.38
2018-11-13T19:06:43.372Z,99441.23
2018-11-13T19:09:12.690Z,99441.76
2018-11-13T19:11:40.937Z,99441.77
2018-11-13T19:14:09.016Z,99439.30
2018-11-13T19:16:37.544Z,99446.33
2018-11-13T19:19:05.485Z,99451.20
2018-11-13T19:21:33.670Z,99454.15
2018-11-13T19:24:01.951Z,99452.27
2018-11-13T19:26:30.018Z,99443.35
2018-11-13T19:28:58.230Z,99446.37
2018-11-13T19:31:26.416Z,99449.92
2018-11-13T19:33:54.570Z,99446.73
2018-11-13T19:36:23.936Z,99449.19
2018-11-13T19:38:52.181Z,99455.65
2018-11-13T19:41:20.357Z,99452.93
2018-11-13T19:43:48.609Z,99454.58
2018-11-13T19:46:16.774Z,99460.54
2018-11-13T19:48:44.957Z,99471.05
2018-11-13T19:51:13.193Z,99468.35
2018-11-13T19:53:41.504Z,99477.53
2018-11-13T19:56:09.701Z,99479.42
2018-11-13T19:58:38.089Z,99481.31
2018-11-13T20:01:06.607Z,99474.30
2018-11-13T20:03:34.839Z,99479.70
2018-11-13T20:06:03.606Z,99484.02
2018-11-13T20:08:31.753Z,99485.64
2018-11-13T20:10:59.936Z,99492.39
2018-11-13T20:13:28.122Z,99489.69
2018-11-13T20:15:56.302Z,99488.84
2018-11-13T20:18:24.438Z,99481.31
2018-11-13T20:20:57.050Z,99483.44
2018-11-13T20:23:25.247Z,99483.98
2018-11-13T20:25:53.395Z,99486.41
2018-11-13T20:28:21.581Z,99483.47
2018-11-13T20:30:49.932Z,99477.77
2018-11-13T20:33:18.103Z,99478.56
2018-11-13T20:35:46.269Z,99479.91
2018-11-13T20:38:14.433Z,99480.70
2018-11-13T20:40:42.758Z,99478.28
2018-11-13T20:43:12.042Z,99481.72
2018-11-13T20:45:40.240Z,99487.61
2018-11-13T20:48:08.475Z,99488.88
2018-11-13T20:50:36.669Z,99487.75
2018-11-13T20:53:04.939Z,99491.50
2018-11-13T20:55:33.090Z,99487.94
2018-11-13T20:58:01.277Z,99487.64
2018-11-13T21:00:32.917Z,99490.85
2018-11-13T21:03:01.149Z,99493.03
2018-11-13T21:05:29.303Z,99491.90
2018-11-13T21:07:57.565Z,99490.75
2018-11-13T21:10:32.108Z,99495.83
2018-11-13T21:13:00.956Z,99498.90
2018-11-13T21:15:29.172Z,99501.81
2018-11-13T21:17:57.403Z,99494.35
2018-11-13T21:20:26.024Z,99496.28
2018-11-13T21:22:53.820Z,99491.19
2018-11-13T21:25:23.272Z,99498.25
2018-11-13T21:27:54.532Z,99491.79
2018-11-13T21:30:23.109Z,99490.45
2018-11-13T21:32:52.082Z,99490.72
2018-11-13T21:35:20.242Z,99493.70
2018-11-13T21:37:49.980Z,99499.14
2018-11-13T21:40:19.466Z,99498.61
2018-11-13T21:42:48.552Z,99499.95
2018-11-13T21:45:17.657Z,99506.98
2018-11-13T21:47:45.920Z,99507.25
2018-11-13T21:50:15.639Z,99507.82
2018-11-13T21:52:43.906Z,99512.14
2018-11-13T21:55:14.113Z,99507.81
2018-11-13T21:57:43.372Z,99512.94
2018-11-13T22:00:16.735Z,99513.20
2018-11-13T22:02:49.327Z,99511.63
2018-11-13T22:05:17.501Z,99513.51
2018-11-13T22:07:45.957Z,99514.84
2018-11-13T22:10:14.213Z,99522.15
2018-11-13T22:12:42.427Z,99515.92
2018-11-13T22:15:13.289Z,99524.59
2018-11-13T22:17:41.609Z,99515.38
2018-11-13T22:20:11.651Z,99509.44
2018-11-13T22:22:39.845Z,99513.77
2018-11-13T22:25:11.877Z,99519.44
2018-11-13T22:27:40.667Z,99516.20
2018-11-13T22:30:11.126Z,99521.33
2018-11-13T22:32:39.590Z,99523.50
2018-11-13T22:35:09.254Z,99525.91
2018-11-13T22:37:37.836Z,99528.89
2018-11-13T22:40:08.332Z,99529.17
2018-11-13T22:42:36.968Z,99535.11
2018-11-13T22:45:06.030Z,99532.66
2018-11-13T22:47:34.304Z,99529.67
2018-11-13T22:50:02.504Z,99527.74
2018-11-13T22:52:30.686Z,99524.48
2018-11-13T22:54:59.286Z,99522.07
2018-11-13T22:57:27.111Z,99514.44
2018-11-13T22:59:55.506Z,99520.61
2018-11-13T23:02:23.787Z,99517.61
2018-11-13T23:04:51.953Z,99522.22
2018-11-13T23:07:20.125Z,99522.73
2018-11-13T23:09:48.347Z,99520.80
2018-11-13T23:12:16.662Z,99517.84
2018-11-13T23:14:44.814Z,99526.73
2018-11-13T23:17:13.063Z,99522.92
2018-11-13T23:19:41.212Z,99523.45
2018-11-13T23:22:09.421Z,99523.95
2018-11-13T23:24:37.641Z,99524.52
2018-11-13T23:27:05.973Z,99524.53
2018-11-13T23:29:34.301Z,99519.95
2018-11-13T23:32:02.925Z,99516.68
2018-11-13T23:34:32.011Z,99519.09
2018-11-13T23:37:00.085Z,99522.88
2018-11-13T23:39:28.261Z,99527.73
2018-11-13T23:41:56.414Z,99524.77
2018-11-13T23:44:24.567Z,99522.05
2018-11-13T23:46:52.812Z,99519.34
2018-11-13T23:49:21.078Z,99517.74
2018-11-13T23:51:49.252Z,99521.24
2018-11-13T23:54:17.689Z,99519.57
2018-11-13T23:56:45.838Z,99521.20
2018-11-13T23:59:14.039Z,99523.90
